sensor_id;sensor_type;location;lat;lon;timestamp;P1;durP1;ratioP1;P2;durP2;ratioP2
9904;SDS011;4991;43.566;27.820;2022-07-23T00:01:18;5.70;;;2.53;;
9904;SDS011;4991;43.566;27.820;2022-07-23T00:03:43;2.43;;;1.93;;
9904;SDS011;4991;43.566;27.820;2022-07-23T00:06:10;2.83;;;2.40;;
9904;SDS011;4991;43.566;27.820;2022-07-23T00:08:36;2.53;;;2.10;;
9904;SDS011;4991;43.566;27.820;2022-07-23T00:11:02;3.70;;;2.70;;
9904;SDS011;4991;43.566;27.820;2022-07-23T00:13:28;4.83;;;2.83;;
9904;SDS011;4991;43.566;27.820;2022-07-23T00:15:53;4.70;;;3.10;;
9904;SDS011;4991;43.566;27.820;2022-07-23T00:18:19;3.90;;;2.50;;
9904;SDS011;4991;43.566;27.820;2022-07-23T00:20:45;5.47;;;3.00;;
9904;SDS011;4991;43.566;27.820;2022-07-23T00:23:10;4.20;;;2.83;;
9904;SDS011;4991;43.566;27.820;2022-07-23T00:25:36;4.37;;;3.27;;
9904;SDS011;4991;43.566;27.820;2022-07-23T00:28:02;3.70;;;3.20;;
9904;SDS011;4991;43.566;27.820;2022-07-23T00:30:28;3.90;;;3.10;;
9904;SDS011;4991;43.566;27.820;2022-07-23T00:32:56;4.30;;;3.10;;
9904;SDS011;4991;43.566;27.820;2022-07-23T00:35:28;3.30;;;2.60;;
9904;SDS011;4991;43.566;27.820;2022-07-23T00:37:56;4.50;;;3.03;;
9904;SDS011;4991;43.566;27.820;2022-07-23T00:40:22;3.90;;;2.87;;
9904;SDS011;4991;43.566;27.820;2022-07-23T00:42:49;4.97;;;3.20;;
9904;SDS011;4991;43.566;27.820;2022-07-23T00:45:15;5.50;;;3.50;;
9904;SDS011;4991;43.566;27.820;2022-07-23T00:47:41;5.80;;;2.97;;
9904;SDS011;4991;43.566;27.820;2022-07-23T00:50:07;8.93;;;3.27;;
9904;SDS011;4991;43.566;27.820;2022-07-23T00:52:34;4.07;;;2.80;;
9904;SDS011;4991;43.566;27.820;2022-07-23T00:55:01;6.63;;;2.73;;
9904;SDS011;4991;43.566;27.820;2022-07-23T00:57:27;3.33;;;2.73;;
9904;SDS011;4991;43.566;27.820;2022-07-23T00:59:52;4.53;;;3.40;;
9904;SDS011;4991;43.566;27.820;2022-07-23T01:02:18;5.17;;;2.47;;
9904;SDS011;4991;43.566;27.820;2022-07-23T01:04:43;3.20;;;2.90;;
9904;SDS011;4991;43.566;27.820;2022-07-23T01:07:10;5.40;;;2.73;;
9904;SDS011;4991;43.566;27.820;2022-07-23T01:09:36;6.20;;;3.50;;
9904;SDS011;4991;43.566;27.820;2022-07-23T01:12:02;5.50;;;3.37;;
9904;SDS011;4991;43.566;27.820;2022-07-23T01:14:28;5.30;;;3.23;;
9904;SDS011;4991;43.566;27.820;2022-07-23T01:16:54;6.97;;;3.53;;
9904;SDS011;4991;43.566;27.820;2022-07-23T01:19:20;4.73;;;2.90;;
9904;SDS011;4991;43.566;27.820;2022-07-23T01:21:49;3.83;;;2.93;;
9904;SDS011;4991;43.566;27.820;2022-07-23T01:24:17;4.67;;;3.23;;
9904;SDS011;4991;43.566;27.820;2022-07-23T01:26:47;6.07;;;3.23;;
9904;SDS011;4991;43.566;27.820;2022-07-23T01:29:14;3.63;;;3.17;;
9904;SDS011;4991;43.566;27.820;2022-07-23T01:31:40;5.90;;;3.20;;
9904;SDS011;4991;43.566;27.820;2022-07-23T01:34:06;3.60;;;3.20;;
9904;SDS011;4991;43.566;27.820;2022-07-23T01:36:33;4.97;;;2.97;;
9904;SDS011;4991;43.566;27.820;2022-07-23T01:38:59;4.80;;;3.13;;
9904;SDS011;4991;43.566;27.820;2022-07-23T01:41:25;3.90;;;2.80;;
9904;SDS011;4991;43.566;27.820;2022-07-23T01:43:51;3.20;;;2.87;;
9904;SDS011;4991;43.566;27.820;2022-07-23T01:46:16;4.80;;;3.30;;
9904;SDS011;4991;43.566;27.820;2022-07-23T01:48:42;6.03;;;3.03;;
9904;SDS011;4991;43.566;27.820;2022-07-23T01:51:08;4.97;;;3.07;;
9904;SDS011;4991;43.566;27.820;2022-07-23T01:53:34;4.97;;;2.80;;
9904;SDS011;4991;43.566;27.820;2022-07-23T01:55:59;7.10;;;3.37;;
9904;SDS011;4991;43.566;27.820;2022-07-23T01:58:26;4.40;;;3.20;;
9904;SDS011;4991;43.566;27.820;2022-07-23T02:00:53;6.80;;;3.00;;
9904;SDS011;4991;43.566;27.820;2022-07-23T02:03:19;4.80;;;2.97;;
9904;SDS011;4991;43.566;27.820;2022-07-23T02:05:45;3.77;;;2.80;;
9904;SDS011;4991;43.566;27.820;2022-07-23T02:08:11;10.57;;;3.30;;
9904;SDS011;4991;43.566;27.820;2022-07-23T02:10:36;14.77;;;3.60;;
9904;SDS011;4991;43.566;27.820;2022-07-23T02:13:02;5.27;;;3.37;;
9904;SDS011;4991;43.566;27.820;2022-07-23T02:15:28;3.87;;;3.47;;
9904;SDS011;4991;43.566;27.820;2022-07-23T02:17:55;5.57;;;3.40;;
9904;SDS011;4991;43.566;27.820;2022-07-23T02:20:21;4.27;;;3.30;;
9904;SDS011;4991;43.566;27.820;2022-07-23T02:22:47;7.50;;;3.70;;
9904;SDS011;4991;43.566;27.820;2022-07-23T02:25:12;5.83;;;4.87;;
9904;SDS011;4991;43.566;27.820;2022-07-23T02:27:38;8.10;;;4.43;;
9904;SDS011;4991;43.566;27.820;2022-07-23T02:30:04;8.10;;;4.17;;
9904;SDS011;4991;43.566;27.820;2022-07-23T02:32:31;6.20;;;3.87;;
9904;SDS011;4991;43.566;27.820;2022-07-23T02:34:57;4.37;;;3.97;;
9904;SDS011;4991;43.566;27.820;2022-07-23T02:37:22;6.60;;;3.77;;
9904;SDS011;4991;43.566;27.820;2022-07-23T02:39:48;4.60;;;3.67;;
9904;SDS011;4991;43.566;27.820;2022-07-23T02:42:14;5.67;;;3.80;;
9904;SDS011;4991;43.566;27.820;2022-07-23T02:44:41;6.93;;;3.57;;
9904;SDS011;4991;43.566;27.820;2022-07-23T02:47:06;6.30;;;3.23;;
9904;SDS011;4991;43.566;27.820;2022-07-23T02:49:32;6.43;;;3.70;;
9904;SDS011;4991;43.566;27.820;2022-07-23T02:51:58;8.30;;;3.80;;
9904;SDS011;4991;43.566;27.820;2022-07-23T02:54:24;6.90;;;4.07;;
9904;SDS011;4991;43.566;27.820;2022-07-23T02:56:49;6.30;;;4.20;;
9904;SDS011;4991;43.566;27.820;2022-07-23T02:59:18;6.30;;;3.83;;
9904;SDS011;4991;43.566;27.820;2022-07-23T03:01:44;8.43;;;3.90;;
9904;SDS011;4991;43.566;27.820;2022-07-23T03:04:10;10.00;;;3.70;;
9904;SDS011;4991;43.566;27.820;2022-07-23T03:06:37;3.47;;;2.97;;
9904;SDS011;4991;43.566;27.820;2022-07-23T03:09:03;5.97;;;4.37;;
9904;SDS011;4991;43.566;27.820;2022-07-23T03:11:31;6.07;;;3.60;;
9904;SDS011;4991;43.566;27.820;2022-07-23T03:13:57;12.00;;;5.00;;
9904;SDS011;4991;43.566;27.820;2022-07-23T03:16:22;8.90;;;4.43;;
9904;SDS011;4991;43.566;27.820;2022-07-23T03:18:48;10.73;;;4.20;;
9904;SDS011;4991;43.566;27.820;2022-07-23T03:21:14;6.33;;;3.97;;
9904;SDS011;4991;43.566;27.820;2022-07-23T03:23:40;7.43;;;3.77;;
9904;SDS011;4991;43.566;27.820;2022-07-23T03:26:05;6.27;;;4.10;;
9904;SDS011;4991;43.566;27.820;2022-07-23T03:28:30;6.63;;;3.83;;
9904;SDS011;4991;43.566;27.820;2022-07-23T03:30:56;6.53;;;3.50;;
9904;SDS011;4991;43.566;27.820;2022-07-23T03:33:22;7.83;;;3.53;;
9904;SDS011;4991;43.566;27.820;2022-07-23T03:35:47;6.17;;;3.50;;
9904;SDS011;4991;43.566;27.820;2022-07-23T03:38:13;4.77;;;3.87;;
9904;SDS011;4991;43.566;27.820;2022-07-23T03:40:39;15.10;;;4.47;;
9904;SDS011;4991;43.566;27.820;2022-07-23T03:43:05;6.87;;;4.83;;
9904;SDS011;4991;43.566;27.820;2022-07-23T03:45:31;13.70;;;7.60;;
9904;SDS011;4991;43.566;27.820;2022-07-23T03:47:58;8.93;;;6.87;;
9904;SDS011;4991;43.566;27.820;2022-07-23T03:50:24;9.63;;;7.40;;
9904;SDS011;4991;43.566;27.820;2022-07-23T03:52:49;16.03;;;8.50;;
9904;SDS011;4991;43.566;27.820;2022-07-23T03:55:15;14.50;;;9.80;;
9904;SDS011;4991;43.566;27.820;2022-07-23T03:57:41;12.10;;;7.87;;
9904;SDS011;4991;43.566;27.820;2022-07-23T04:00:08;13.07;;;6.70;;
9904;SDS011;4991;43.566;27.820;2022-07-23T04:02:35;17.03;;;6.57;;
9904;SDS011;4991;43.566;27.820;2022-07-23T04:05:02;10.93;;;7.80;;
9904;SDS011;4991;43.566;27.820;2022-07-23T04:07:28;10.53;;;6.03;;
9904;SDS011;4991;43.566;27.820;2022-07-23T04:09:53;12.70;;;6.30;;
9904;SDS011;4991;43.566;27.820;2022-07-23T04:12:19;15.40;;;6.07;;
9904;SDS011;4991;43.566;27.820;2022-07-23T04:14:45;10.23;;;5.30;;
9904;SDS011;4991;43.566;27.820;2022-07-23T04:17:11;8.80;;;5.00;;
9904;SDS011;4991;43.566;27.820;2022-07-23T04:19:37;9.10;;;4.73;;
9904;SDS011;4991;43.566;27.820;2022-07-23T04:22:05;8.03;;;4.93;;
9904;SDS011;4991;43.566;27.820;2022-07-23T04:24:32;7.57;;;3.63;;
9904;SDS011;4991;43.566;27.820;2022-07-23T04:26:57;7.67;;;3.90;;
9904;SDS011;4991;43.566;27.820;2022-07-23T04:29:23;7.73;;;4.33;;
9904;SDS011;4991;43.566;27.820;2022-07-23T04:31:50;10.00;;;6.50;;
9904;SDS011;4991;43.566;27.820;2022-07-23T04:34:16;7.47;;;4.20;;
9904;SDS011;4991;43.566;27.820;2022-07-23T04:36:42;8.43;;;4.73;;
9904;SDS011;4991;43.566;27.820;2022-07-23T04:39:07;8.90;;;4.97;;
9904;SDS011;4991;43.566;27.820;2022-07-23T04:41:33;6.33;;;4.63;;
9904;SDS011;4991;43.566;27.820;2022-07-23T04:43:59;12.60;;;5.33;;
9904;SDS011;4991;43.566;27.820;2022-07-23T04:46:25;6.73;;;4.77;;
9904;SDS011;4991;43.566;27.820;2022-07-23T04:48:51;9.87;;;5.10;;
9904;SDS011;4991;43.566;27.820;2022-07-23T04:51:17;8.37;;;4.73;;
9904;SDS011;4991;43.566;27.820;2022-07-23T04:53:43;10.20;;;5.60;;
9904;SDS011;4991;43.566;27.820;2022-07-23T04:56:08;7.87;;;5.00;;
9904;SDS011;4991;43.566;27.820;2022-07-23T04:58:34;12.63;;;5.60;;
9904;SDS011;4991;43.566;27.820;2022-07-23T05:01:00;8.17;;;5.30;;
9904;SDS011;4991;43.566;27.820;2022-07-23T05:03:25;9.77;;;4.93;;
9904;SDS011;4991;43.566;27.820;2022-07-23T05:05:51;10.50;;;5.60;;
9904;SDS011;4991;43.566;27.820;2022-07-23T05:08:17;14.90;;;6.20;;
9904;SDS011;4991;43.566;27.820;2022-07-23T05:10:43;22.93;;;6.07;;
9904;SDS011;4991;43.566;27.820;2022-07-23T05:13:08;10.48;;;5.90;;
9904;SDS011;4991;43.566;27.820;2022-07-23T05:15:34;9.55;;;6.30;;
9904;SDS011;4991;43.566;27.820;2022-07-23T05:18:00;8.60;;;4.60;;
9904;SDS011;4991;43.566;27.820;2022-07-23T05:20:26;11.68;;;4.82;;
9904;SDS011;4991;43.566;27.820;2022-07-23T05:22:52;9.23;;;4.97;;
9904;SDS011;4991;43.566;27.820;2022-07-23T05:25:17;8.43;;;4.60;;
9904;SDS011;4991;43.566;27.820;2022-07-23T05:27:43;9.02;;;3.95;;
9904;SDS011;4991;43.566;27.820;2022-07-23T05:30:09;4.55;;;3.40;;
9904;SDS011;4991;43.566;27.820;2022-07-23T05:32:35;11.73;;;4.25;;
9904;SDS011;4991;43.566;27.820;2022-07-23T05:35:06;9.15;;;4.00;;
9904;SDS011;4991;43.566;27.820;2022-07-23T05:37:32;7.57;;;3.65;;
9904;SDS011;4991;43.566;27.820;2022-07-23T05:40:02;3.97;;;3.55;;
9904;SDS011;4991;43.566;27.820;2022-07-23T05:42:28;8.73;;;3.58;;
9904;SDS011;4991;43.566;27.820;2022-07-23T05:44:55;12.07;;;4.53;;
9904;SDS011;4991;43.566;27.820;2022-07-23T05:47:21;9.73;;;4.45;;
9904;SDS011;4991;43.566;27.820;2022-07-23T05:49:47;8.88;;;4.40;;
9904;SDS011;4991;43.566;27.820;2022-07-23T05:52:12;11.82;;;5.00;;
9904;SDS011;4991;43.566;27.820;2022-07-23T05:54:38;8.85;;;4.57;;
9904;SDS011;4991;43.566;27.820;2022-07-23T05:57:05;4.63;;;3.80;;
9904;SDS011;4991;43.566;27.820;2022-07-23T05:59:30;10.20;;;4.78;;
9904;SDS011;4991;43.566;27.820;2022-07-23T06:01:56;15.20;;;6.32;;
9904;SDS011;4991;43.566;27.820;2022-07-23T06:04:23;7.25;;;5.57;;
9904;SDS011;4991;43.566;27.820;2022-07-23T06:06:48;6.75;;;4.30;;
9904;SDS011;4991;43.566;27.820;2022-07-23T06:09:14;8.60;;;4.78;;
9904;SDS011;4991;43.566;27.820;2022-07-23T06:11:40;7.93;;;4.97;;
9904;SDS011;4991;43.566;27.820;2022-07-23T06:14:13;11.70;;;5.07;;
9904;SDS011;4991;43.566;27.820;2022-07-23T06:19:44;10.87;;;4.47;;
9904;SDS011;4991;43.566;27.820;2022-07-23T06:27:50;6.17;;;4.47;;
9904;SDS011;4991;43.566;27.820;2022-07-23T06:30:17;8.00;;;3.97;;
9904;SDS011;4991;43.566;27.820;2022-07-23T06:32:46;6.07;;;4.70;;
9904;SDS011;4991;43.566;27.820;2022-07-23T06:35:14;7.20;;;4.47;;
9904;SDS011;4991;43.566;27.820;2022-07-23T06:37:43;11.52;;;4.78;;
9904;SDS011;4991;43.566;27.820;2022-07-23T06:40:09;5.20;;;4.05;;
9904;SDS011;4991;43.566;27.820;2022-07-23T06:42:38;8.52;;;5.10;;
9904;SDS011;4991;43.566;27.820;2022-07-23T06:45:04;6.03;;;4.10;;
9904;SDS011;4991;43.566;27.820;2022-07-23T06:47:31;5.77;;;4.30;;
9904;SDS011;4991;43.566;27.820;2022-07-23T06:49:57;13.02;;;4.85;;
9904;SDS011;4991;43.566;27.820;2022-07-23T06:52:33;6.93;;;4.97;;
9904;SDS011;4991;43.566;27.820;2022-07-23T06:54:58;5.60;;;4.80;;
9904;SDS011;4991;43.566;27.820;2022-07-23T06:57:26;16.52;;;11.85;;
9904;SDS011;4991;43.566;27.820;2022-07-23T07:02:53;7.78;;;3.67;;
9904;SDS011;4991;43.566;27.820;2022-07-23T07:08:29;4.18;;;3.72;;
9904;SDS011;4991;43.566;27.820;2022-07-23T07:11:02;8.43;;;4.50;;
9904;SDS011;4991;43.566;27.820;2022-07-23T07:13:35;12.60;;;4.80;;
9904;SDS011;4991;43.566;27.820;2022-07-23T07:16:10;5.80;;;4.53;;
9904;SDS011;4991;43.566;27.820;2022-07-23T07:18:43;6.07;;;4.53;;
9904;SDS011;4991;43.566;27.820;2022-07-23T07:21:10;5.70;;;4.18;;
9904;SDS011;4991;43.566;27.820;2022-07-23T07:26:27;6.50;;;4.13;;
9904;SDS011;4991;43.566;27.820;2022-07-23T07:31:35;6.78;;;4.30;;
9904;SDS011;4991;43.566;27.820;2022-07-23T07:40:46;6.30;;;5.07;;
9904;SDS011;4991;43.566;27.820;2022-07-23T07:43:12;7.60;;;4.80;;
9904;SDS011;4991;43.566;27.820;2022-07-23T07:45:37;7.43;;;4.53;;
9904;SDS011;4991;43.566;27.820;2022-07-23T07:48:03;5.13;;;4.63;;
9904;SDS011;4991;43.566;27.820;2022-07-23T07:53:42;10.02;;;4.63;;
9904;SDS011;4991;43.566;27.820;2022-07-23T07:56:13;5.57;;;4.47;;
9904;SDS011;4991;43.566;27.820;2022-07-23T07:58:46;9.65;;;4.53;;
9904;SDS011;4991;43.566;27.820;2022-07-23T08:01:20;4.55;;;4.15;;
9904;SDS011;4991;43.566;27.820;2022-07-23T08:03:54;6.30;;;4.68;;
9904;SDS011;4991;43.566;27.820;2022-07-23T08:11:43;6.35;;;4.53;;
9904;SDS011;4991;43.566;27.820;2022-07-23T08:14:09;14.63;;;5.50;;
9904;SDS011;4991;43.566;27.820;2022-07-23T08:19:43;6.82;;;4.70;;
9904;SDS011;4991;43.566;27.820;2022-07-23T08:22:10;5.85;;;3.50;;
9904;SDS011;4991;43.566;27.820;2022-07-23T08:27:44;5.70;;;4.70;;
9904;SDS011;4991;43.566;27.820;2022-07-23T08:30:10;5.43;;;4.18;;
9904;SDS011;4991;43.566;27.820;2022-07-23T08:32:52;9.95;;;4.35;;
9904;SDS011;4991;43.566;27.820;2022-07-23T08:35:43;7.85;;;4.88;;
9904;SDS011;4991;43.566;27.820;2022-07-23T08:38:10;5.72;;;4.75;;
9904;SDS011;4991;43.566;27.820;2022-07-23T08:40:37;8.57;;;4.57;;
9904;SDS011;4991;43.566;27.820;2022-07-23T08:43:05;7.45;;;4.70;;
9904;SDS011;4991;43.566;27.820;2022-07-23T08:45:35;5.53;;;4.63;;
9904;SDS011;4991;43.566;27.820;2022-07-23T08:48:02;8.18;;;5.20;;
9904;SDS011;4991;43.566;27.820;2022-07-23T08:50:30;6.32;;;5.00;;
9904;SDS011;4991;43.566;27.820;2022-07-23T08:52:56;8.23;;;4.60;;
9904;SDS011;4991;43.566;27.820;2022-07-23T08:55:24;6.28;;;4.90;;
9904;SDS011;4991;43.566;27.820;2022-07-23T08:57:51;9.30;;;5.30;;
9904;SDS011;4991;43.566;27.820;2022-07-23T09:00:18;5.68;;;4.80;;
9904;SDS011;4991;43.566;27.820;2022-07-23T09:02:45;7.60;;;4.80;;
9904;SDS011;4991;43.566;27.820;2022-07-23T09:05:11;5.55;;;4.97;;
9904;SDS011;4991;43.566;27.820;2022-07-23T09:08:03;5.75;;;4.22;;
9904;SDS011;4991;43.566;27.820;2022-07-23T09:10:33;6.47;;;4.63;;
9904;SDS011;4991;43.566;27.820;2022-07-23T09:16:00;10.98;;;4.72;;
9904;SDS011;4991;43.566;27.820;2022-07-23T09:18:31;6.28;;;4.40;;
9904;SDS011;4991;43.566;27.820;2022-07-23T09:23:42;14.13;;;4.80;;
9904;SDS011;4991;43.566;27.820;2022-07-23T09:26:20;7.95;;;4.68;;
9904;SDS011;4991;43.566;27.820;2022-07-23T09:31:19;5.80;;;4.55;;
9904;SDS011;4991;43.566;27.820;2022-07-23T09:33:45;4.57;;;4.18;;
9904;SDS011;4991;43.566;27.820;2022-07-23T09:36:10;11.40;;;4.70;;
9904;SDS011;4991;43.566;27.820;2022-07-23T09:38:47;5.65;;;4.50;;
9904;SDS011;4991;43.566;27.820;2022-07-23T09:41:14;6.18;;;4.40;;
9904;SDS011;4991;43.566;27.820;2022-07-23T09:43:39;8.90;;;4.95;;
9904;SDS011;4991;43.566;27.820;2022-07-23T09:48:51;4.68;;;4.28;;
9904;SDS011;4991;43.566;27.820;2022-07-23T09:51:21;10.07;;;4.78;;
9904;SDS011;4991;43.566;27.820;2022-07-23T09:53:53;8.07;;;4.63;;
9904;SDS011;4991;43.566;27.820;2022-07-23T09:56:19;6.25;;;4.45;;
9904;SDS011;4991;43.566;27.820;2022-07-23T09:58:45;11.45;;;5.57;;
9904;SDS011;4991;43.566;27.820;2022-07-23T10:01:15;7.80;;;5.03;;
9904;SDS011;4991;43.566;27.820;2022-07-23T10:03:41;6.07;;;4.47;;
9904;SDS011;4991;43.566;27.820;2022-07-23T10:06:10;7.13;;;4.75;;
9904;SDS011;4991;43.566;27.820;2022-07-23T10:08:41;4.63;;;4.13;;
9904;SDS011;4991;43.566;27.820;2022-07-23T10:11:09;7.85;;;5.00;;
9904;SDS011;4991;43.566;27.820;2022-07-23T10:13:38;5.72;;;4.47;;
9904;SDS011;4991;43.566;27.820;2022-07-23T10:16:24;8.80;;;4.88;;
9904;SDS011;4991;43.566;27.820;2022-07-23T10:18:50;6.53;;;4.50;;
9904;SDS011;4991;43.566;27.820;2022-07-23T10:21:18;9.95;;;4.18;;
9904;SDS011;4991;43.566;27.820;2022-07-23T10:24:24;7.22;;;4.05;;
9904;SDS011;4991;43.566;27.820;2022-07-23T10:27:08;7.28;;;5.20;;
9904;SDS011;4991;43.566;27.820;2022-07-23T10:30:05;6.45;;;4.70;;
9904;SDS011;4991;43.566;27.820;2022-07-23T10:35:28;7.32;;;4.90;;
9904;SDS011;4991;43.566;27.820;2022-07-23T10:37:56;5.88;;;4.50;;
9904;SDS011;4991;43.566;27.820;2022-07-23T10:40:26;5.55;;;4.25;;
9904;SDS011;4991;43.566;27.820;2022-07-23T10:42:53;4.55;;;4.15;;
9904;SDS011;4991;43.566;27.820;2022-07-23T10:47:53;8.30;;;5.10;;
9904;SDS011;4991;43.566;27.820;2022-07-23T10:50:20;7.07;;;5.18;;
9904;SDS011;4991;43.566;27.820;2022-07-23T10:57:59;6.00;;;4.57;;
9904;SDS011;4991;43.566;27.820;2022-07-23T11:00:30;7.60;;;4.85;;
9904;SDS011;4991;43.566;27.820;2022-07-23T11:03:01;7.70;;;5.18;;
9904;SDS011;4991;43.566;27.820;2022-07-23T11:05:41;8.73;;;4.60;;
9904;SDS011;4991;43.566;27.820;2022-07-23T11:13:30;6.40;;;4.70;;
9904;SDS011;4991;43.566;27.820;2022-07-23T11:34:32;5.32;;;4.40;;
9904;SDS011;4991;43.566;27.820;2022-07-23T11:37:04;7.10;;;4.45;;
9904;SDS011;4991;43.566;27.820;2022-07-23T11:39:31;7.35;;;4.43;;
9904;SDS011;4991;43.566;27.820;2022-07-23T11:42:00;7.82;;;4.30;;
9904;SDS011;4991;43.566;27.820;2022-07-23T11:44:31;4.32;;;3.92;;
9904;SDS011;4991;43.566;27.820;2022-07-23T11:47:05;4.65;;;4.10;;
9904;SDS011;4991;43.566;27.820;2022-07-23T11:49:32;5.90;;;4.13;;
9904;SDS011;4991;43.566;27.820;2022-07-23T11:52:05;6.40;;;3.85;;
9904;SDS011;4991;43.566;27.820;2022-07-23T11:54:55;5.22;;;4.13;;
9904;SDS011;4991;43.566;27.820;2022-07-23T11:57:56;13.55;;;4.43;;
9904;SDS011;4991;43.566;27.820;2022-07-23T12:00:17;4.70;;;4.30;;
9904;SDS011;4991;43.566;27.820;2022-07-23T12:02:55;6.45;;;4.43;;
9904;SDS011;4991;43.566;27.820;2022-07-23T12:05:26;5.72;;;4.10;;
9904;SDS011;4991;43.566;27.820;2022-07-23T12:07:57;4.45;;;4.05;;
9904;SDS011;4991;43.566;27.820;2022-07-23T12:10:42;5.20;;;4.63;;
9904;SDS011;4991;43.566;27.820;2022-07-23T12:13:13;5.22;;;3.83;;
9904;SDS011;4991;43.566;27.820;2022-07-23T12:15:45;7.00;;;4.03;;
9904;SDS011;4991;43.566;27.820;2022-07-23T12:18:14;4.40;;;3.80;;
9904;SDS011;4991;43.566;27.820;2022-07-23T12:20:42;6.07;;;3.78;;
9904;SDS011;4991;43.566;27.820;2022-07-23T12:23:16;8.15;;;3.95;;
9904;SDS011;4991;43.566;27.820;2022-07-23T12:25:44;6.97;;;3.90;;
9904;SDS011;4991;43.566;27.820;2022-07-23T12:33:10;6.15;;;4.47;;
9904;SDS011;4991;43.566;27.820;2022-07-23T12:38:06;7.05;;;4.60;;
9904;SDS011;4991;43.566;27.820;2022-07-23T12:40:47;6.25;;;3.90;;
9904;SDS011;4991;43.566;27.820;2022-07-23T12:43:25;4.72;;;4.00;;
9904;SDS011;4991;43.566;27.820;2022-07-23T12:45:53;5.22;;;4.03;;
9904;SDS011;4991;43.566;27.820;2022-07-23T12:48:28;7.10;;;3.75;;
9904;SDS011;4991;43.566;27.820;2022-07-23T12:50:55;5.43;;;3.72;;
9904;SDS011;4991;43.566;27.820;2022-07-23T12:53:29;6.47;;;3.97;;
9904;SDS011;4991;43.566;27.820;2022-07-23T12:59:06;9.63;;;4.10;;
9904;SDS011;4991;43.566;27.820;2022-07-23T13:01:42;4.68;;;3.70;;
9904;SDS011;4991;43.566;27.820;2022-07-23T13:04:20;10.73;;;4.18;;
9904;SDS011;4991;43.566;27.820;2022-07-23T13:06:47;5.15;;;3.58;;
9904;SDS011;4991;43.566;27.820;2022-07-23T13:09:15;7.68;;;4.57;;
9904;SDS011;4991;43.566;27.820;2022-07-23T13:11:43;9.75;;;3.90;;
9904;SDS011;4991;43.566;27.820;2022-07-23T13:14:11;11.65;;;3.85;;
9904;SDS011;4991;43.566;27.820;2022-07-23T13:16:38;5.00;;;3.47;;
9904;SDS011;4991;43.566;27.820;2022-07-23T13:19:04;5.40;;;3.60;;
9904;SDS011;4991;43.566;27.820;2022-07-23T13:21:31;8.70;;;3.83;;
9904;SDS011;4991;43.566;27.820;2022-07-23T13:23:57;8.65;;;3.42;;
9904;SDS011;4991;43.566;27.820;2022-07-23T13:26:23;8.23;;;3.80;;
9904;SDS011;4991;43.566;27.820;2022-07-23T13:28:49;7.43;;;3.83;;
9904;SDS011;4991;43.566;27.820;2022-07-23T13:31:15;7.97;;;3.67;;
9904;SDS011;4991;43.566;27.820;2022-07-23T13:33:41;6.22;;;3.60;;
9904;SDS011;4991;43.566;27.820;2022-07-23T13:36:07;7.30;;;3.75;;
9904;SDS011;4991;43.566;27.820;2022-07-23T13:38:32;8.15;;;4.45;;
9904;SDS011;4991;43.566;27.820;2022-07-23T13:40:58;7.95;;;3.70;;
9904;SDS011;4991;43.566;27.820;2022-07-23T13:43:24;5.85;;;3.75;;
9904;SDS011;4991;43.566;27.820;2022-07-23T13:45:50;8.32;;;4.18;;
9904;SDS011;4991;43.566;27.820;2022-07-23T13:48:17;3.45;;;3.15;;
9904;SDS011;4991;43.566;27.820;2022-07-23T13:50:43;7.32;;;4.07;;
9904;SDS011;4991;43.566;27.820;2022-07-23T13:53:11;4.43;;;3.60;;
9904;SDS011;4991;43.566;27.820;2022-07-23T13:55:39;4.20;;;3.80;;
9904;SDS011;4991;43.566;27.820;2022-07-23T13:58:07;5.40;;;3.85;;
9904;SDS011;4991;43.566;27.820;2022-07-23T14:00:34;3.97;;;3.30;;
9904;SDS011;4991;43.566;27.820;2022-07-23T14:03:02;6.40;;;3.67;;
9904;SDS011;4991;43.566;27.820;2022-07-23T14:05:27;10.43;;;3.60;;
9904;SDS011;4991;43.566;27.820;2022-07-23T14:07:53;8.68;;;4.00;;
9904;SDS011;4991;43.566;27.820;2022-07-23T14:10:19;6.32;;;3.70;;
9904;SDS011;4991;43.566;27.820;2022-07-23T14:12:46;7.15;;;4.20;;
9904;SDS011;4991;43.566;27.820;2022-07-23T14:15:13;5.90;;;3.83;;
9904;SDS011;4991;43.566;27.820;2022-07-23T14:17:40;6.20;;;4.32;;
9904;SDS011;4991;43.566;27.820;2022-07-23T14:20:07;8.23;;;3.97;;
9904;SDS011;4991;43.566;27.820;2022-07-23T14:22:33;3.72;;;3.42;;
9904;SDS011;4991;43.566;27.820;2022-07-23T14:24:59;5.25;;;3.38;;
9904;SDS011;4991;43.566;27.820;2022-07-23T14:27:25;3.72;;;3.40;;
9904;SDS011;4991;43.566;27.820;2022-07-23T14:29:53;5.85;;;4.15;;
9904;SDS011;4991;43.566;27.820;2022-07-23T14:32:18;6.65;;;3.75;;
9904;SDS011;4991;43.566;27.820;2022-07-23T14:34:44;4.18;;;3.75;;
9904;SDS011;4991;43.566;27.820;2022-07-23T14:37:10;4.38;;;3.20;;
9904;SDS011;4991;43.566;27.820;2022-07-23T14:39:37;3.83;;;3.47;;
9904;SDS011;4991;43.566;27.820;2022-07-23T14:42:03;7.00;;;5.10;;
9904;SDS011;4991;43.566;27.820;2022-07-23T14:44:29;10.60;;;6.50;;
9904;SDS011;4991;43.566;27.820;2022-07-23T14:46:54;9.05;;;4.65;;
9904;SDS011;4991;43.566;27.820;2022-07-23T14:49:20;4.15;;;3.65;;
9904;SDS011;4991;43.566;27.820;2022-07-23T14:51:46;5.82;;;3.30;;
9904;SDS011;4991;43.566;27.820;2022-07-23T14:54:11;5.40;;;3.65;;
9904;SDS011;4991;43.566;27.820;2022-07-23T14:56:39;7.55;;;3.85;;
9904;SDS011;4991;43.566;27.820;2022-07-23T14:59:05;9.18;;;3.78;;
9904;SDS011;4991;43.566;27.820;2022-07-23T15:01:30;6.15;;;3.60;;
9904;SDS011;4991;43.566;27.820;2022-07-23T15:03:56;5.40;;;3.85;;
9904;SDS011;4991;43.566;27.820;2022-07-23T15:06:22;6.30;;;3.33;;
9904;SDS011;4991;43.566;27.820;2022-07-23T15:08:47;4.35;;;3.30;;
9904;SDS011;4991;43.566;27.820;2022-07-23T15:11:13;4.55;;;3.45;;
9904;SDS011;4991;43.566;27.820;2022-07-23T15:13:38;5.55;;;3.55;;
9904;SDS011;4991;43.566;27.820;2022-07-23T15:16:04;5.57;;;3.80;;
9904;SDS011;4991;43.566;27.820;2022-07-23T15:18:30;9.75;;;4.88;;
9904;SDS011;4991;43.566;27.820;2022-07-23T15:20:56;10.32;;;6.18;;
9904;SDS011;4991;43.566;27.820;2022-07-23T15:23:22;5.70;;;4.05;;
9904;SDS011;4991;43.566;27.820;2022-07-23T15:25:47;4.07;;;3.15;;
9904;SDS011;4991;43.566;27.820;2022-07-23T15:28:13;6.32;;;4.43;;
9904;SDS011;4991;43.566;27.820;2022-07-23T15:30:38;6.50;;;3.92;;
9904;SDS011;4991;43.566;27.820;2022-07-23T15:33:04;4.43;;;3.67;;
9904;SDS011;4991;43.566;27.820;2022-07-23T15:35:30;8.77;;;3.58;;
9904;SDS011;4991;43.566;27.820;2022-07-23T15:37:56;5.80;;;4.28;;
9904;SDS011;4991;43.566;27.820;2022-07-23T15:40:22;4.75;;;3.53;;
9904;SDS011;4991;43.566;27.820;2022-07-23T15:42:48;5.63;;;4.18;;
9904;SDS011;4991;43.566;27.820;2022-07-23T15:45:13;4.82;;;3.60;;
9904;SDS011;4991;43.566;27.820;2022-07-23T15:47:38;5.85;;;3.75;;
9904;SDS011;4991;43.566;27.820;2022-07-23T15:50:06;4.35;;;3.40;;
9904;SDS011;4991;43.566;27.820;2022-07-23T15:52:31;8.55;;;3.25;;
9904;SDS011;4991;43.566;27.820;2022-07-23T15:54:57;7.45;;;4.20;;
9904;SDS011;4991;43.566;27.820;2022-07-23T15:57:22;8.68;;;4.32;;
9904;SDS011;4991;43.566;27.820;2022-07-23T15:59:48;4.57;;;3.08;;
9904;SDS011;4991;43.566;27.820;2022-07-23T16:02:13;5.88;;;3.30;;
9904;SDS011;4991;43.566;27.820;2022-07-23T16:04:40;9.65;;;4.25;;
9904;SDS011;4991;43.566;27.820;2022-07-23T16:07:06;6.82;;;3.78;;
9904;SDS011;4991;43.566;27.820;2022-07-23T16:09:32;3.78;;;3.30;;
9904;SDS011;4991;43.566;27.820;2022-07-23T16:11:57;9.00;;;3.20;;
9904;SDS011;4991;43.566;27.820;2022-07-23T16:14:23;7.22;;;3.33;;
9904;SDS011;4991;43.566;27.820;2022-07-23T16:16:48;3.80;;;3.42;;
9904;SDS011;4991;43.566;27.820;2022-07-23T16:19:14;7.13;;;5.03;;
9904;SDS011;4991;43.566;27.820;2022-07-23T16:21:40;4.60;;;3.70;;
9904;SDS011;4991;43.566;27.820;2022-07-23T16:24:06;7.97;;;3.80;;
9904;SDS011;4991;43.566;27.820;2022-07-23T16:26:32;5.70;;;4.40;;
9904;SDS011;4991;43.566;27.820;2022-07-23T16:28:57;4.13;;;3.45;;
9904;SDS011;4991;43.566;27.820;2022-07-23T16:31:22;5.25;;;3.08;;
9904;SDS011;4991;43.566;27.820;2022-07-23T16:33:48;5.00;;;3.60;;
9904;SDS011;4991;43.566;27.820;2022-07-23T16:36:14;4.28;;;3.83;;
9904;SDS011;4991;43.566;27.820;2022-07-23T16:38:39;6.05;;;3.38;;
9904;SDS011;4991;43.566;27.820;2022-07-23T16:41:05;5.88;;;3.50;;